createdAt,value
2022-10-18T00:00:43.845Z,101391.94
2022-10-18T00:03:32.245Z,101384.39
2022-10-18T00:06:00.879Z,101385.09
2022-10-18T00:08:29.263Z,101382.02
2022-10-18T00:10:57.162Z,101382.05
2022-10-18T00:13:25.088Z,101385.66
2022-10-18T00:15:55.820Z,101382.09
2022-10-18T00:18:23.800Z,101381.93
2022-10-18T00:21:18.992Z,101377.48
2022-10-18T00:23:48.382Z,101374.91
2022-10-18T00:26:19.317Z,101373.20
2022-10-18T00:28:50.602Z,101370.45
2022-10-18T00:31:22.024Z,101370.11
2022-10-18T00:33:53.032Z,101371.31
2022-10-18T00:36:21.757Z,101369.95
2022-10-18T00:38:49.721Z,101368.06
2022-10-18T00:41:21.784Z,101364.46
2022-10-18T00:44:28.013Z,101360.88
2022-10-18T00:46:59.704Z,101357.62
2022-10-18T00:49:39.857Z,101351.44
2022-10-18T00:52:12.095Z,101344.92
2022-10-18T00:54:42.353Z,101339.09
2022-10-18T00:57:10.505Z,101338.41
2022-10-18T00:59:38.694Z,101331.73
2022-10-18T01:02:07.408Z,101331.21
2022-10-18T01:04:35.315Z,101332.58
2022-10-18T01:07:32.037Z,101329.99
2022-10-18T01:09:59.952Z,101325.71
2022-10-18T01:12:30.508Z,101333.61
2022-10-18T01:15:21.244Z,101327.09
2022-10-18T01:18:19.441Z,101324.68
2022-10-18T01:21:13.228Z,101321.92
2022-10-18T01:24:00.283Z,101321.92
2022-10-18T01:26:55.657Z,101320.53
2022-10-18T01:30:00.984Z,101318.64
2022-10-18T01:32:40.032Z,101317.61
2022-10-18T01:35:13.418Z,101315.37
2022-10-18T01:37:45.793Z,101319.48
2022-10-18T01:40:17.333Z,101319.30
2022-10-18T01:42:47.668Z,101319.16
2022-10-18T01:45:16.918Z,101319.50
2022-10-18T01:47:46.655Z,101321.73
2022-10-18T01:50:14.670Z,101322.95
2022-10-18T01:52:51.996Z,101320.90
2022-10-18T01:55:32.683Z,101317.13
2022-10-18T01:58:10.805Z,101314.73
2022-10-18T02:00:44.928Z,101313.02
2022-10-18T02:03:24.083Z,101312.52
2022-10-18T02:05:58.323Z,101314.75
2022-10-18T02:08:44.866Z,101314.73
2022-10-18T02:11:15.187Z,101316.81
2022-10-18T02:13:49.889Z,101316.13
2022-10-18T02:16:21.555Z,101315.95
2022-10-18T02:19:05.395Z,101319.22
2022-10-18T02:21:34.279Z,101317.69
2022-10-18T02:24:03.539Z,101322.64
2022-10-18T02:26:31.366Z,101316.48
2022-10-18T02:28:59.122Z,101316.48
2022-10-18T02:31:41.123Z,101311.68
2022-10-18T02:34:21.074Z,101312.54
2022-10-18T02:36:55.184Z,101311.69
2022-10-18T02:39:29.910Z,101311.67
2022-10-18T02:41:58.301Z,101314.25
2022-10-18T02:44:26.457Z,101314.61
2022-10-18T02:46:54.426Z,101312.89
2022-10-18T02:49:22.582Z,101321.98
2022-10-18T02:51:50.258Z,101315.46
2022-10-18T02:54:17.874Z,101312.89
2022-10-18T02:56:45.597Z,101313.07
2022-10-18T02:59:13.239Z,101317.71
2022-10-18T03:01:40.975Z,101317.20
2022-10-18T03:04:09.176Z,101317.52
2022-10-18T03:06:36.961Z,101313.77
2022-10-18T03:09:06.331Z,101312.38
2022-10-18T03:11:34.131Z,101314.95
2022-10-18T03:14:01.969Z,101316.16
2022-10-18T03:16:29.836Z,101313.23
2022-10-18T03:18:57.495Z,101313.26
2022-10-18T03:21:25.159Z,101314.79
2022-10-18T03:23:52.762Z,101310.52
2022-10-18T03:26:21.721Z,101311.88
2022-10-18T03:28:49.459Z,101313.94
2022-10-18T03:31:17.407Z,101311.02
2022-10-18T03:33:45.203Z,101316.66
2022-10-18T03:36:12.966Z,101316.50
2022-10-18T03:38:40.729Z,101313.58
2022-10-18T03:41:08.493Z,101313.58
2022-10-18T03:43:36.077Z,101307.58
2022-10-18T03:46:03.916Z,101309.28
2022-10-18T03:48:31.572Z,101308.60
2022-10-18T03:50:59.248Z,101309.28
2022-10-18T03:53:26.863Z,101310.13
2022-10-18T03:55:56.033Z,101311.52
2022-10-18T03:58:24.228Z,101311.84
2022-10-18T04:00:53.172Z,101312.51
2022-10-18T04:03:22.655Z,101314.39
2022-10-18T04:05:50.610Z,101318.48
2022-10-18T04:08:18.845Z,101313.52
2022-10-18T04:10:46.720Z,101306.48
2022-10-18T04:13:14.306Z,101305.80
2022-10-18T04:15:43.006Z,101310.95
2022-10-18T04:18:10.670Z,101309.24
2022-10-18T04:20:38.473Z,101313.18
2022-10-18T04:23:06.158Z,101316.61
2022-10-18T04:25:33.814Z,101313.86
2022-10-18T04:28:01.503Z,101317.79
2022-10-18T04:30:29.094Z,101317.95
2022-10-18T04:32:56.723Z,101317.09
2022-10-18T04:35:25.992Z,101318.80
2022-10-18T04:37:54.202Z,101319.14
2022-10-18T04:40:21.794Z,101319.30
2022-10-18T04:42:49.377Z,101318.11
2022-10-18T04:45:17.078Z,101315.20
2022-10-18T04:47:44.667Z,101315.71
2022-10-18T04:50:12.282Z,101311.45
2022-10-18T04:52:39.920Z,101312.80
2022-10-18T04:55:07.904Z,101312.80
2022-10-18T04:57:35.539Z,101318.98
2022-10-18T05:00:04.391Z,101317.77
2022-10-18T05:02:32.289Z,101316.07
2022-10-18T05:04:59.969Z,101317.42
2022-10-18T05:07:27.572Z,101318.63
2022-10-18T05:09:55.232Z,101315.89
2022-10-18T05:12:22.896Z,101315.88
2022-10-18T05:14:50.555Z,101323.59
2022-10-18T05:17:18.215Z,101323.75
2022-10-18T05:19:45.785Z,101322.89
2022-10-18T05:22:13.392Z,101320.48
2022-10-18T05:24:41.097Z,101321.84
2022-10-18T05:27:10.283Z,101326.96
2022-10-18T05:29:37.952Z,101328.00
2022-10-18T05:32:05.560Z,101330.56
2022-10-18T05:34:33.168Z,101334.14
2022-10-18T05:37:01.567Z,101328.30
2022-10-18T05:39:29.190Z,101323.17
2022-10-18T05:41:58.306Z,101328.65
2022-10-18T05:44:26.375Z,101334.65
2022-10-18T05:46:54.045Z,101336.86
2022-10-18T05:49:21.720Z,101334.81
2022-10-18T05:51:49.771Z,101334.98
2022-10-18T05:54:17.631Z,101340.64
2022-10-18T05:56:45.319Z,101345.27
2022-10-18T05:59:13.260Z,101345.44
2022-10-18T06:01:42.662Z,101348.19
2022-10-18T06:04:10.527Z,101356.06
2022-10-18T06:06:38.853Z,101355.39
2022-10-18T06:09:08.289Z,101356.61
2022-10-18T06:11:37.113Z,101356.44
2022-10-18T06:14:05.218Z,101354.06
2022-10-18T06:16:33.025Z,101356.31
2022-10-18T06:19:00.897Z,101361.45
2022-10-18T06:21:28.657Z,101363.35
2022-10-18T06:23:58.986Z,101361.82
2022-10-18T06:26:28.098Z,101362.35
2022-10-18T06:28:56.104Z,101365.96
2022-10-18T06:31:23.839Z,101363.92
2022-10-18T06:33:51.573Z,101364.77
2022-10-18T06:36:24.259Z,101366.84
2022-10-18T06:38:52.404Z,101366.69
2022-10-18T06:41:20.594Z,101364.63
2022-10-18T06:43:53.876Z,101366.35
2022-10-18T06:46:21.652Z,101365.68
2022-10-18T06:48:49.419Z,101359.69
2022-10-18T06:51:18.444Z,101356.27
2022-10-18T06:53:59.234Z,101359.70
2022-10-18T06:56:35.219Z,101362.78
2022-10-18T06:59:02.998Z,101360.21
2022-10-18T07:01:31.055Z,101362.61
2022-10-18T07:03:58.852Z,101358.66
2022-10-18T07:06:26.924Z,101359.53
2022-10-18T07:08:54.874Z,101356.44
2022-10-18T07:11:25.834Z,101353.52
2022-10-18T07:13:55.440Z,101355.07
2022-10-18T07:16:23.156Z,101355.58
2022-10-18T07:18:51.771Z,101355.75
2022-10-18T07:21:22.391Z,101357.62
2022-10-18T07:23:51.694Z,101358.30
2022-10-18T07:26:25.332Z,101360.02
2022-10-18T07:28:57.970Z,101361.04
2022-10-18T07:31:26.239Z,101362.58
2022-10-18T07:33:54.616Z,101363.60
2022-10-18T07:36:22.517Z,101361.54
2022-10-18T07:38:52.086Z,101358.93
2022-10-18T07:41:20.283Z,101358.44
2022-10-18T07:43:51.048Z,101358.77
2022-10-18T07:46:20.927Z,101352.39
2022-10-18T07:48:49.322Z,101345.67
2022-10-18T07:51:18.688Z,101342.40
2022-10-18T07:53:46.310Z,101333.63
2022-10-18T07:56:16.634Z,101332.42
2022-10-18T07:58:46.211Z,101342.02
2022-10-18T08:01:14.859Z,101349.73
2022-10-18T08:03:43.459Z,101345.42
2022-10-18T08:06:13.085Z,101341.80
2022-10-18T08:08:41.294Z,101342.13
2022-10-18T08:11:11.768Z,101340.23
2022-10-18T08:13:39.509Z,101334.04
2022-10-18T08:16:09.824Z,101329.06
2022-10-18T08:18:38.205Z,101329.56
2022-10-18T08:21:08.742Z,101328.17
2022-10-18T08:23:37.440Z,101335.02
2022-10-18T08:26:08.736Z,101332.09
2022-10-18T08:28:37.131Z,101335.65
2022-10-18T08:31:07.879Z,101332.70
2022-10-18T08:33:36.292Z,101330.76
2022-10-18T08:36:06.212Z,101328.30
2022-10-18T08:38:36.171Z,101325.14
2022-10-18T08:41:37.925Z,101322.98
2022-10-18T08:44:14.309Z,101325.48
2022-10-18T08:46:45.939Z,101325.74
2022-10-18T08:49:28.585Z,101323.43
2022-10-18T08:51:57.875Z,101321.25
2022-10-18T08:54:44.487Z,101314.45
2022-10-18T08:57:16.059Z,101314.90
2022-10-18T08:59:44.513Z,101314.00
2022-10-18T09:02:33.740Z,101314.11
2022-10-18T09:05:10.755Z,101313.85
2022-10-18T09:08:11.687Z,101314.84
2022-10-18T09:11:02.062Z,101314.10
2022-10-18T09:14:02.319Z,101311.42
2022-10-18T09:16:50.339Z,101309.04
2022-10-18T09:19:29.733Z,101304.11
2022-10-18T09:22:07.460Z,101303.65
2022-10-18T09:24:52.170Z,101304.23
2022-10-18T09:27:22.572Z,101304.70
2022-10-18T09:30:08.464Z,101304.55
2022-10-18T09:32:48.728Z,101298.70
2022-10-18T09:35:33.963Z,101299.52
2022-10-18T09:38:05.833Z,101295.20
2022-10-18T09:40:37.837Z,101290.48
2022-10-18T09:43:17.251Z,101286.64
2022-10-18T09:45:47.162Z,101281.95
2022-10-18T09:48:21.233Z,101270.02
2022-10-18T09:51:03.480Z,101267.31
2022-10-18T09:53:38.644Z,101262.65
2022-10-18T09:56:06.480Z,101261.29
2022-10-18T09:58:48.490Z,101258.81
2022-10-18T10:01:24.740Z,101253.91
2022-10-18T10:03:53.146Z,101250.81
2022-10-18T10:06:49.754Z,101244.98
2022-10-18T10:09:21.370Z,101246.52
2022-10-18T10:11:50.989Z,101242.72
2022-10-18T10:14:23.184Z,101239.25
2022-10-18T10:16:52.691Z,101231.95
2022-10-18T10:19:42.737Z,101224.23
2022-10-18T10:22:13.299Z,101220.40
2022-10-18T10:24:51.099Z,101216.92
2022-10-18T10:27:18.960Z,101218.71
2022-10-18T10:29:46.682Z,101213.16
2022-10-18T10:32:17.407Z,101213.98
2022-10-18T10:34:45.425Z,101206.35
2022-10-18T10:37:37.790Z,101205.98
2022-10-18T10:40:17.979Z,101202.02
2022-10-18T10:43:12.813Z,101200.84
2022-10-18T10:45:58.499Z,101196.22
2022-10-18T10:48:32.335Z,101193.43
2022-10-18T10:51:06.219Z,101189.68
2022-10-18T10:53:57.634Z,101188.95
2022-10-18T10:56:29.696Z,101185.36
2022-10-18T10:59:07.419Z,101179.41
2022-10-18T11:01:36.483Z,101180.27
2022-10-18T11:04:24.083Z,101170.91
2022-10-18T11:07:09.181Z,101166.02
2022-10-18T11:09:51.610Z,101159.48
2022-10-18T11:12:37.966Z,101164.87
2022-10-18T11:15:18.350Z,101163.38
2022-10-18T11:17:57.587Z,101161.27
2022-10-18T11:20:35.278Z,101159.44
2022-10-18T11:23:07.440Z,101155.04
2022-10-18T11:26:02.551Z,101152.96
2022-10-18T11:28:32.965Z,101151.11
2022-10-18T11:31:27.563Z,101144.70
2022-10-18T11:34:11.687Z,101139.06
2022-10-18T11:37:30.082Z,101136.89
2022-10-18T11:40:16.985Z,101126.87
2022-10-18T11:43:10.440Z,101124.25
2022-10-18T11:45:53.260Z,101120.79
2022-10-18T11:48:26.752Z,101125.04
2022-10-18T11:51:06.396Z,101123.58
2022-10-18T11:54:06.831Z,101118.73
2022-10-18T11:56:49.517Z,101116.72
2022-10-18T11:59:52.116Z,101112.08
2022-10-18T12:02:49.896Z,101105.58
2022-10-18T12:05:23.668Z,101099.70
2022-10-18T12:08:10.891Z,101096.11
2022-10-18T12:10:59.859Z,101092.64
2022-10-18T12:13:36.946Z,101081.51
2022-10-18T12:16:06.979Z,101077.88
2022-10-18T12:18:41.715Z,101080.13
2022-10-18T12:21:12.866Z,101065.61
2022-10-18T12:23:46.750Z,101068.65
2022-10-18T12:26:15.171Z,101059.52
2022-10-18T12:28:53.858Z,101058.84
2022-10-18T12:31:49.254Z,101051.24
2022-10-18T12:34:22.742Z,101047.58
2022-10-18T12:39:51.842Z,101041.90
2022-10-18T12:42:33.382Z,101038.18
2022-10-18T12:45:19.737Z,101030.91
2022-10-18T12:47:47.425Z,101023.05
2022-10-18T12:50:27.253Z,101023.85
2022-10-18T12:53:10.167Z,101021.84
2022-10-18T12:55:44.269Z,101019.80
2022-10-18T12:58:15.012Z,101022.11
2022-10-18T13:00:42.668Z,101014.46
2022-10-18T13:03:13.196Z,101013.20
2022-10-18T13:05:54.521Z,101007.91
2022-10-18T13:08:30.145Z,101005.05
2022-10-18T13:11:10.256Z,101003.34
2022-10-18T13:14:00.518Z,101001.41
2022-10-18T13:16:31.176Z,100998.94
2022-10-18T13:19:10.822Z,100995.27
2022-10-18T13:22:13.627Z,100986.55
2022-10-18T13:25:04.209Z,100985.45
2022-10-18T13:27:38.406Z,100977.85
2022-10-18T13:30:05.953Z,100977.77
2022-10-18T13:33:08.676Z,100969.48
2022-10-18T13:35:54.890Z,100967.39
2022-10-18T13:39:02.814Z,100965.96
2022-10-18T13:41:56.551Z,100957.98
2022-10-18T13:44:40.496Z,100953.74
2022-10-18T13:47:11.084Z,100950.92
2022-10-18T13:49:38.675Z,100946.23
2022-10-18T13:52:41.836Z,100936.90
2022-10-18T13:55:32.565Z,100932.31
2022-10-18T13:58:22.049Z,100930.64
2022-10-18T14:00:52.885Z,100928.83
2022-10-18T14:04:10.418Z,100926.13
2022-10-18T14:06:44.026Z,100921.52
2022-10-18T14:12:23.961Z,100914.22
2022-10-18T14:15:10.492Z,100910.94
2022-10-18T14:17:44.497Z,100905.64
2022-10-18T14:20:19.533Z,100904.31
2022-10-18T14:23:01.731Z,100902.84
2022-10-18T14:25:32.943Z,100897.75
2022-10-18T14:28:36.300Z,100889.14
2022-10-18T14:31:14.890Z,100886.63
2022-10-18T14:33:43.779Z,100884.59
2022-10-18T14:36:19.118Z,100883.67
2022-10-18T14:39:05.259Z,100881.40
2022-10-18T14:41:35.495Z,100883.60
2022-10-18T14:44:14.972Z,100879.00
2022-10-18T14:46:46.933Z,100873.72
2022-10-18T14:49:15.590Z,100870.66
2022-10-18T14:51:45.838Z,100869.68
2022-10-18T14:54:19.692Z,100865.66
2022-10-18T14:56:48.140Z,100861.92
2022-10-18T14:59:21.989Z,100861.16
2022-10-18T15:01:56.048Z,100856.41
2022-10-18T15:04:32.596Z,100853.92
2022-10-18T15:07:03.140Z,100849.57
2022-10-18T15:09:33.460Z,100854.68
2022-10-18T15:12:05.728Z,100860.31
2022-10-18T15:14:34.830Z,100862.77
2022-10-18T15:17:14.011Z,100864.27
2022-10-18T15:19:54.401Z,100859.02
2022-10-18T15:22:32.200Z,100861.63
2022-10-18T15:25:09.453Z,100866.20
2022-10-18T15:30:43.195Z,100865.44
2022-10-18T15:33:23.367Z,100861.67
2022-10-18T15:35:52.731Z,100861.66
2022-10-18T15:38:21.663Z,100865.98
2022-10-18T15:40:50.018Z,100877.55
2022-10-18T15:43:24.204Z,100898.80
2022-10-18T15:46:05.277Z,100930.55
2022-10-18T15:48:40.516Z,100942.69
2022-10-18T15:51:24.292Z,100940.19
2022-10-18T15:53:55.423Z,100945.44
2022-10-18T15:56:35.710Z,100956.77
2022-10-18T15:59:23.762Z,100984.30
2022-10-18T16:01:52.344Z,100985.65
2022-10-18T16:04:24.233Z,100975.52
2022-10-18T16:06:52.528Z,100965.06
2022-10-18T16:09:22.118Z,100959.52
2022-10-18T16:11:56.387Z,100954.98
2022-10-18T16:14:26.044Z,100953.33
2022-10-18T16:16:56.584Z,100945.48
2022-10-18T16:19:24.452Z,100945.67
2022-10-18T16:21:54.161Z,100954.09
2022-10-18T16:24:22.952Z,100965.61
2022-10-18T16:26:51.342Z,100973.84
2022-10-18T16:29:24.509Z,100979.69
2022-10-18T16:31:53.712Z,100993.60
2022-10-18T16:34:33.058Z,101003.91
2022-10-18T16:37:01.237Z,101008.23
2022-10-18T16:39:32.173Z,101011.30
2022-10-18T16:41:59.976Z,101014.23
2022-10-18T16:44:28.093Z,101014.23
2022-10-18T16:46:56.440Z,101006.01
2022-10-18T16:49:26.066Z,100988.20
2022-10-18T16:51:54.348Z,100992.30
2022-10-18T16:54:22.941Z,101001.90
2022-10-18T16:56:50.697Z,101005.67
2022-10-18T16:59:30.185Z,101007.23
2022-10-18T17:01:58.009Z,101011.84
2022-10-18T17:04:25.867Z,101013.39
2022-10-18T17:06:57.289Z,101008.59
2022-10-18T17:09:25.185Z,101014.25
2022-10-18T17:11:52.841Z,101015.11
2022-10-18T17:14:20.708Z,101023.67
2022-10-18T17:16:52.319Z,101036.35
2022-10-18T17:19:23.606Z,101034.80
2022-10-18T17:21:51.233Z,101035.16
2022-10-18T17:24:18.828Z,101031.91
2022-10-18T17:26:46.502Z,101030.39
2022-10-18T17:29:14.328Z,101036.22
2022-10-18T17:31:42.101Z,101033.51
2022-10-18T17:34:09.724Z,101048.08
2022-10-18T17:36:38.132Z,101062.98
2022-10-18T17:39:05.742Z,101075.48
2022-10-18T17:41:33.474Z,101079.27
2022-10-18T17:44:03.701Z,101086.96
2022-10-18T17:46:31.975Z,101092.96
2022-10-18T17:48:59.581Z,101088.85
2022-10-18T17:51:27.173Z,101087.14
2022-10-18T17:53:54.848Z,101084.06
2022-10-18T17:56:22.525Z,101073.10
2022-10-18T17:58:51.613Z,101067.80
2022-10-18T18:01:23.842Z,101051.73
2022-10-18T18:03:57.269Z,101048.48
2022-10-18T18:06:34.174Z,101047.61
2022-10-18T18:09:07.331Z,101040.92
2022-10-18T18:11:36.681Z,101044.70
2022-10-18T18:14:09.732Z,101041.80
2022-10-18T18:16:40.131Z,101034.44
2022-10-18T18:19:10.079Z,101035.64
2022-10-18T18:21:39.409Z,101034.77
2022-10-18T18:24:08.168Z,101027.23
2022-10-18T18:26:37.611Z,101022.63
2022-10-18T18:29:05.505Z,101018.69
2022-10-18T18:31:38.754Z,101014.41
2022-10-18T18:34:09.824Z,101013.21
2022-10-18T18:36:37.511Z,101022.61
2022-10-18T18:39:06.019Z,101024.85
2022-10-18T18:41:33.756Z,101025.02
2022-10-18T18:44:04.484Z,101020.07
2022-10-18T18:46:36.937Z,101024.68
2022-10-18T18:49:06.183Z,101035.29
2022-10-18T18:51:37.449Z,101048.13
2022-10-18T18:54:05.660Z,101062.16
2022-10-18T18:56:34.141Z,101060.95
2022-10-18T18:59:02.332Z,101064.04
2022-10-18T19:01:33.302Z,101068.31
2022-10-18T19:04:01.508Z,101063.35
2022-10-18T19:06:32.172Z,101058.73
2022-10-18T19:09:04.936Z,101055.14
2022-10-18T19:11:36.144Z,101058.38
2022-10-18T19:14:04.612Z,101064.20
2022-10-18T19:16:36.256Z,101064.38
2022-10-18T19:19:14.256Z,101066.25
2022-10-18T19:21:47.524Z,101069.69
2022-10-18T19:24:15.687Z,101069.16
2022-10-18T19:26:49.401Z,101076.86
2022-10-18T19:29:24.647Z,101069.86
2022-10-18T19:31:54.561Z,101067.63
2022-10-18T19:34:24.285Z,101067.62
2022-10-18T19:36:52.409Z,101065.06
2022-10-18T19:39:25.708Z,101058.73
2022-10-18T19:41:56.361Z,101057.70
2022-10-18T19:44:27.512Z,101061.29
2022-10-18T19:46:55.469Z,101057.35
2022-10-18T19:49:23.441Z,101055.14
2022-10-18T19:51:51.101Z,101051.20
2022-10-18T19:54:18.743Z,101050.34
2022-10-18T19:56:46.929Z,101053.09
2022-10-18T19:59:17.037Z,101050.35
2022-10-18T20:01:45.540Z,101047.09
2022-10-18T20:04:13.500Z,101044.70
2022-10-18T20:06:42.804Z,101046.06
2022-10-18T20:09:14.682Z,101046.75
2022-10-18T20:11:45.594Z,101048.63
2022-10-18T20:14:13.258Z,101048.81
2022-10-18T20:16:41.224Z,101047.77
2022-10-18T20:19:09.700Z,101048.29
2022-10-18T20:21:37.434Z,101043.33
2022-10-18T20:24:06.596Z,101046.75
2022-10-18T20:26:35.839Z,101045.04
2022-10-18T20:29:04.350Z,101045.89
2022-10-18T20:31:35.783Z,101042.47
2022-10-18T20:34:09.121Z,101036.30
2022-10-18T20:36:37.248Z,101041.95
2022-10-18T20:39:06.533Z,101045.38
2022-10-18T20:41:38.109Z,101042.98
2022-10-18T20:44:10.704Z,101042.30
2022-10-18T20:46:39.161Z,101046.05
2022-10-18T20:49:08.664Z,101051.36
2022-10-18T20:51:36.443Z,101049.83
2022-10-18T20:56:39.449Z,101053.59
2022-10-18T20:59:10.042Z,101054.60
2022-10-18T21:01:39.626Z,101050.16
2022-10-18T21:04:09.996Z,101049.14
2022-10-18T21:06:41.032Z,101047.08
2022-10-18T21:09:12.384Z,101048.45
2022-10-18T21:11:42.385Z,101044.34
2022-10-18T21:14:13.666Z,101042.47
2022-10-18T21:16:42.890Z,101045.55
2022-10-18T21:19:16.638Z,101041.10
2022-10-18T21:21:47.282Z,101038.02
2022-10-18T21:24:14.991Z,101042.30
2022-10-18T21:26:43.214Z,101041.44
2022-10-18T21:29:12.625Z,101031.17
2022-10-18T21:31:42.438Z,101032.19
2022-10-18T21:34:16.015Z,101037.50
2022-10-18T21:36:47.568Z,101035.61
2022-10-18T21:39:18.962Z,101040.58
2022-10-18T21:41:47.080Z,101034.26
2022-10-18T21:44:15.879Z,101041.42
2022-10-18T21:46:43.844Z,101037.31
2022-10-18T21:49:11.797Z,101041.42
2022-10-18T21:51:40.000Z,101036.30
2022-10-18T21:54:12.355Z,101036.98
2022-10-18T21:56:40.653Z,101037.15
2022-10-18T21:59:11.175Z,101035.45
2022-10-18T22:01:39.875Z,101034.07
2022-10-18T22:04:16.999Z,101029.45
2022-10-18T22:06:44.633Z,101030.31
2022-10-18T22:09:12.275Z,101023.98
2022-10-18T22:11:50.282Z,101024.50
2022-10-18T22:14:18.002Z,101023.64
2022-10-18T22:16:45.776Z,101023.98
2022-10-18T22:19:13.645Z,101023.81
2022-10-18T22:21:41.240Z,101021.94
2022-10-18T22:24:10.056Z,101020.05
2022-10-18T22:26:40.828Z,101022.11
2022-10-18T22:29:20.901Z,101023.14
2022-10-18T22:31:51.099Z,101020.91
2022-10-18T22:34:27.538Z,101020.73
2022-10-18T22:36:56.447Z,101020.91
2022-10-18T22:39:24.838Z,101017.33
2022-10-18T22:41:55.905Z,101015.10
2022-10-18T22:44:24.246Z,101014.75
2022-10-18T22:46:52.094Z,101015.09
2022-10-18T22:49:19.770Z,101014.40
2022-10-18T22:51:47.534Z,101016.11
2022-10-18T22:54:15.302Z,101013.70
2022-10-18T22:56:43.259Z,101011.81
2022-10-18T22:59:10.856Z,101009.23
2022-10-18T23:01:38.791Z,101008.57
2022-10-18T23:04:06.453Z,101011.46
2022-10-18T23:06:36.071Z,101012.83
2022-10-18T23:09:10.581Z,101012.82
2022-10-18T23:11:38.226Z,101015.39
2022-10-18T23:14:06.849Z,101016.59
2022-10-18T23:16:34.587Z,101016.09
2022-10-18T23:19:02.555Z,101017.43
2022-10-18T23:21:30.212Z,101016.06
2022-10-18T23:23:57.985Z,101019.48
2022-10-18T23:26:27.904Z,101019.82
2022-10-18T23:28:56.471Z,101023.07
2022-10-18T23:31:30.277Z,101018.77
2022-10-18T23:34:01.009Z,101017.39
2022-10-18T23:36:29.390Z,101018.91
2022-10-18T23:38:57.297Z,101019.41
2022-10-18T23:41:25.837Z,101023.48
2022-10-18T23:43:54.021Z,101025.86
2022-10-18T23:46:22.182Z,101027.88
2022-10-18T23:48:50.235Z,101032.65
2022-10-18T23:51:18.333Z,101029.38
2022-10-18T23:53:46.477Z,101025.08
2022-10-18T23:56:16.302Z,101025.41
2022-10-18T23:58:45.158Z,101028.12
